sensor_id;sensor_type;location;lat;lon;timestamp;pressure;altitude;pressure_sealevel;temperature;humidity
63006;BME280;53704;52.532;6.426;2022-10-22T00:00:42;100911.50;;;11.30;100.00
63006;BME280;53704;52.532;6.426;2022-10-22T00:03:08;100907.31;;;11.28;100.00
63006;BME280;53704;52.532;6.426;2022-10-22T00:05:33;100904.41;;;11.21;100.00
63006;BME280;53704;52.532;6.426;2022-10-22T00:07:58;100897.88;;;11.15;100.00
63006;BME280;53704;52.532;6.426;2022-10-22T00:10:24;100902.38;;;10.98;100.00
63006;BME280;53704;52.532;6.426;2022-10-22T00:12:49;100906.44;;;11.11;100.00
63006;BME280;53704;52.532;6.426;2022-10-22T00:15:15;100908.97;;;11.04;100.00
63006;BME280;53704;52.532;6.426;2022-10-22T00:17:41;100905.72;;;11.00;100.00
63006;BME280;53704;52.532;6.426;2022-10-22T00:20:06;100910.63;;;10.97;100.00
63006;BME280;53704;52.532;6.426;2022-10-22T00:22:32;100920.47;;;10.80;100.00
63006;BME280;53704;52.532;6.426;2022-10-22T00:24:57;100914.28;;;10.79;100.00
63006;BME280;53704;52.532;6.426;2022-10-22T00:27:23;100920.00;;;10.84;100.00
63006;BME280;53704;52.532;6.426;2022-10-22T00:29:48;100924.53;;;10.76;100.00
63006;BME280;53704;52.532;6.426;2022-10-22T00:32:14;100922.66;;;10.68;100.00
63006;BME280;53704;52.532;6.426;2022-10-22T00:34:39;100930.59;;;10.78;100.00
63006;BME280;53704;52.532;6.426;2022-10-22T00:37:04;100930.44;;;10.88;100.00
63006;BME280;53704;52.532;6.426;2022-10-22T00:39:30;100931.41;;;10.70;100.00
63006;BME280;53704;52.532;6.426;2022-10-22T00:41:56;100937.31;;;10.74;100.00
63006;BME280;53704;52.532;6.426;2022-10-22T00:44:57;100941.03;;;10.81;100.00
63006;BME280;53704;52.532;6.426;2022-10-22T00:47:24;100939.50;;;10.78;100.00
63006;BME280;53704;52.532;6.426;2022-10-22T00:49:52;100934.06;;;10.62;100.00
63006;BME280;53704;52.532;6.426;2022-10-22T00:52:18;100943.72;;;10.81;100.00
63006;BME280;53704;52.532;6.426;2022-10-22T00:54:44;100944.84;;;10.70;100.00
63006;BME280;53704;52.532;6.426;2022-10-22T00:57:10;100938.44;;;10.63;100.00
63006;BME280;53704;52.532;6.426;2022-10-22T00:59:35;100941.13;;;10.63;100.00
63006;BME280;53704;52.532;6.426;2022-10-22T01:02:02;100938.00;;;10.76;100.00
63006;BME280;53704;52.532;6.426;2022-10-22T01:04:27;100940.44;;;10.61;100.00
63006;BME280;53704;52.532;6.426;2022-10-22T01:06:53;100945.16;;;10.59;100.00
63006;BME280;53704;52.532;6.426;2022-10-22T01:09:34;100946.84;;;10.60;100.00
63006;BME280;53704;52.532;6.426;2022-10-22T01:12:18;100942.16;;;10.70;100.00
63006;BME280;53704;52.532;6.426;2022-10-22T01:15:10;100942.00;;;10.72;100.00
63006;BME280;53704;52.532;6.426;2022-10-22T01:18:01;100934.56;;;10.65;100.00
63006;BME280;53704;52.532;6.426;2022-10-22T01:20:59;100935.06;;;10.61;100.00
63006;BME280;53704;52.532;6.426;2022-10-22T01:24:43;100932.41;;;10.69;100.00
63006;BME280;53704;52.532;6.426;2022-10-22T01:26:53;100932.34;;;10.61;100.00
63006;BME280;53704;52.532;6.426;2022-10-22T01:29:25;100935.75;;;10.63;100.00
63006;BME280;53704;52.532;6.426;2022-10-22T01:31:56;100926.31;;;10.59;100.00
63006;BME280;53704;52.532;6.426;2022-10-22T01:34:23;100930.06;;;10.74;100.00
63006;BME280;53704;52.532;6.426;2022-10-22T01:36:50;100933.75;;;10.73;100.00
63006;BME280;53704;52.532;6.426;2022-10-22T01:39:17;100934.03;;;10.54;100.00
63006;BME280;53704;52.532;6.426;2022-10-22T01:41:43;100942.81;;;10.64;100.00
63006;BME280;53704;52.532;6.426;2022-10-22T01:47:01;100934.56;;;10.31;100.00
63006;BME280;53704;52.532;6.426;2022-10-22T01:55:46;100936.53;;;10.47;100.00
63006;BME280;53704;52.532;6.426;2022-10-22T02:01:16;100941.84;;;10.12;100.00
63006;BME280;53704;52.532;6.426;2022-10-22T02:04:15;100942.66;;;10.13;100.00
63006;BME280;53704;52.532;6.426;2022-10-22T02:06:43;100935.03;;;10.26;100.00
63006;BME280;53704;52.532;6.426;2022-10-22T02:09:10;100934.56;;;10.31;100.00
63006;BME280;53704;52.532;6.426;2022-10-22T02:11:37;100939.88;;;10.23;100.00
63006;BME280;53704;52.532;6.426;2022-10-22T02:14:04;100932.28;;;10.18;100.00
63006;BME280;53704;52.532;6.426;2022-10-22T02:16:35;100931.88;;;10.31;100.00
63006;BME280;53704;52.532;6.426;2022-10-22T02:19:06;100927.88;;;10.35;100.00
63006;BME280;53704;52.532;6.426;2022-10-22T02:21:34;100921.00;;;10.41;100.00
63006;BME280;53704;52.532;6.426;2022-10-22T02:24:00;100926.06;;;10.44;100.00
63006;BME280;53704;52.532;6.426;2022-10-22T02:26:37;100922.25;;;10.28;100.00
63006;BME280;53704;52.532;6.426;2022-10-22T02:29:26;100930.66;;;10.25;100.00
63006;BME280;53704;52.532;6.426;2022-10-22T02:31:56;100928.16;;;10.32;100.00
63006;BME280;53704;52.532;6.426;2022-10-22T02:34:26;100922.06;;;10.22;100.00
63006;BME280;53704;52.532;6.426;2022-10-22T02:36:55;100928.53;;;10.11;100.00
63006;BME280;53704;52.532;6.426;2022-10-22T02:39:22;100927.88;;;10.35;100.00
63006;BME280;53704;52.532;6.426;2022-10-22T02:41:48;100937.81;;;10.35;100.00
63006;BME280;53704;52.532;6.426;2022-10-22T02:44:13;100940.38;;;10.44;100.00
63006;BME280;53704;52.532;6.426;2022-10-22T02:46:39;100946.38;;;10.38;100.00
63006;BME280;53704;52.532;6.426;2022-10-22T02:49:05;100943.34;;;10.15;100.00
63006;BME280;53704;52.532;6.426;2022-10-22T02:51:30;100931.88;;;10.05;100.00
63006;BME280;53704;52.532;6.426;2022-10-22T02:53:56;100932.53;;;10.07;100.00
63006;BME280;53704;52.532;6.426;2022-10-22T02:56:22;100941.22;;;10.01;100.00
63006;BME280;53704;52.532;6.426;2022-10-22T02:58:47;100939.47;;;10.09;100.00
63006;BME280;53704;52.532;6.426;2022-10-22T03:01:13;100940.66;;;10.15;100.00
63006;BME280;53704;52.532;6.426;2022-10-22T03:03:38;100948.47;;;10.00;100.00
63006;BME280;53704;52.532;6.426;2022-10-22T03:06:03;100939.63;;;10.08;100.00
63006;BME280;53704;52.532;6.426;2022-10-22T03:08:29;100938.72;;;10.25;100.00
63006;BME280;53704;52.532;6.426;2022-10-22T03:10:54;100939.94;;;10.31;100.00
63006;BME280;53704;52.532;6.426;2022-10-22T03:13:20;100939.97;;;10.13;100.00
63006;BME280;53704;52.532;6.426;2022-10-22T03:15:48;100946.09;;;9.97;100.00
63006;BME280;53704;52.532;6.426;2022-10-22T03:18:14;100942.94;;;10.02;100.00
63006;BME280;53704;52.532;6.426;2022-10-22T03:20:39;100941.31;;;10.09;100.00
63006;BME280;53704;52.532;6.426;2022-10-22T03:23:05;100941.88;;;10.21;100.00
63006;BME280;53704;52.532;6.426;2022-10-22T03:25:30;100936.88;;;10.00;100.00
63006;BME280;53704;52.532;6.426;2022-10-22T03:28:02;100943.09;;;10.00;100.00
63006;BME280;53704;52.532;6.426;2022-10-22T03:30:28;100944.44;;;9.78;100.00
63006;BME280;53704;52.532;6.426;2022-10-22T03:32:53;100939.53;;;9.73;100.00
63006;BME280;53704;52.532;6.426;2022-10-22T03:35:19;100939.91;;;9.78;100.00
63006;BME280;53704;52.532;6.426;2022-10-22T03:37:44;100932.94;;;9.50;100.00
63006;BME280;53704;52.532;6.426;2022-10-22T03:40:10;100946.28;;;9.59;100.00
63006;BME280;53704;52.532;6.426;2022-10-22T03:42:37;100939.78;;;9.62;100.00
63006;BME280;53704;52.532;6.426;2022-10-22T03:45:03;100938.22;;;9.59;100.00
63006;BME280;53704;52.532;6.426;2022-10-22T03:47:28;100943.69;;;9.68;100.00
63006;BME280;53704;52.532;6.426;2022-10-22T03:49:54;100948.75;;;9.53;100.00
63006;BME280;53704;52.532;6.426;2022-10-22T03:52:19;100954.19;;;9.61;100.00
63006;BME280;53704;52.532;6.426;2022-10-22T03:54:44;100949.22;;;9.66;100.00
63006;BME280;53704;52.532;6.426;2022-10-22T03:57:10;100951.75;;;9.50;100.00
63006;BME280;53704;52.532;6.426;2022-10-22T03:59:38;100959.13;;;9.48;100.00
63006;BME280;53704;52.532;6.426;2022-10-22T04:02:04;100952.84;;;9.57;100.00
63006;BME280;53704;52.532;6.426;2022-10-22T04:04:30;100949.53;;;9.45;100.00
63006;BME280;53704;52.532;6.426;2022-10-22T04:06:55;100952.06;;;9.65;100.00
63006;BME280;53704;52.532;6.426;2022-10-22T04:09:21;100946.84;;;9.63;100.00
63006;BME280;53704;52.532;6.426;2022-10-22T04:11:47;100959.97;;;9.66;100.00
63006;BME280;53704;52.532;6.426;2022-10-22T04:14:12;100954.59;;;9.66;100.00
63006;BME280;53704;52.532;6.426;2022-10-22T04:16:39;100950.97;;;9.57;100.00
63006;BME280;53704;52.532;6.426;2022-10-22T04:19:05;100946.53;;;9.66;100.00
63006;BME280;53704;52.532;6.426;2022-10-22T04:21:31;100948.81;;;9.61;100.00
63006;BME280;53704;52.532;6.426;2022-10-22T04:23:56;100951.59;;;9.51;100.00
63006;BME280;53704;52.532;6.426;2022-10-22T04:26:22;100948.56;;;9.72;100.00
63006;BME280;53704;52.532;6.426;2022-10-22T04:28:49;100958.91;;;9.59;100.00
63006;BME280;53704;52.532;6.426;2022-10-22T04:31:17;100958.97;;;9.67;100.00
63006;BME280;53704;52.532;6.426;2022-10-22T04:33:44;100955.75;;;9.64;100.00
63006;BME280;53704;52.532;6.426;2022-10-22T04:36:11;100956.22;;;9.59;100.00
63006;BME280;53704;52.532;6.426;2022-10-22T04:38:37;100958.44;;;9.64;100.00
63006;BME280;53704;52.532;6.426;2022-10-22T04:43:34;100964.56;;;9.74;100.00
63006;BME280;53704;52.532;6.426;2022-10-22T04:46:00;100961.88;;;9.74;100.00
63006;BME280;53704;52.532;6.426;2022-10-22T04:48:25;100951.41;;;9.89;100.00
63006;BME280;53704;52.532;6.426;2022-10-22T04:50:50;100958.41;;;9.82;100.00
63006;BME280;53704;52.532;6.426;2022-10-22T04:53:16;100965.75;;;9.98;100.00
63006;BME280;53704;52.532;6.426;2022-10-22T04:55:41;100963.94;;;9.98;100.00
63006;BME280;53704;52.532;6.426;2022-10-22T04:58:07;100970.44;;;9.95;100.00
63006;BME280;53704;52.532;6.426;2022-10-22T05:00:32;100964.91;;;9.97;100.00
63006;BME280;53704;52.532;6.426;2022-10-22T05:02:57;100976.03;;;10.02;100.00
63006;BME280;53704;52.532;6.426;2022-10-22T05:05:23;100974.13;;;9.94;100.00
63006;BME280;53704;52.532;6.426;2022-10-22T05:07:50;100979.66;;;9.93;100.00
63006;BME280;53704;52.532;6.426;2022-10-22T05:10:15;100973.09;;;9.87;100.00
63006;BME280;53704;52.532;6.426;2022-10-22T05:12:41;100979.28;;;9.88;100.00
63006;BME280;53704;52.532;6.426;2022-10-22T05:15:07;100985.75;;;9.95;100.00
63006;BME280;53704;52.532;6.426;2022-10-22T05:17:36;100982.34;;;9.93;100.00
63006;BME280;53704;52.532;6.426;2022-10-22T05:20:02;100982.81;;;10.06;100.00
63006;BME280;53704;52.532;6.426;2022-10-22T05:22:28;100985.34;;;10.08;100.00
63006;BME280;53704;52.532;6.426;2022-10-22T05:24:53;100977.44;;;10.06;100.00
63006;BME280;53704;52.532;6.426;2022-10-22T05:27:19;100984.34;;;10.09;100.00
63006;BME280;53704;52.532;6.426;2022-10-22T05:29:44;100986.19;;;10.08;100.00
63006;BME280;53704;52.532;6.426;2022-10-22T05:32:10;100982.03;;;10.14;100.00
63006;BME280;53704;52.532;6.426;2022-10-22T05:34:35;100983.66;;;10.07;100.00
63006;BME280;53704;52.532;6.426;2022-10-22T05:37:00;100975.41;;;10.08;100.00
63006;BME280;53704;52.532;6.426;2022-10-22T05:39:26;100985.91;;;10.20;100.00
63006;BME280;53704;52.532;6.426;2022-10-22T05:41:51;100981.94;;;10.24;100.00
63006;BME280;53704;52.532;6.426;2022-10-22T05:44:18;100984.47;;;10.25;100.00
63006;BME280;53704;52.532;6.426;2022-10-22T05:46:44;100978.91;;;10.27;100.00
63006;BME280;53704;52.532;6.426;2022-10-22T05:49:12;100985.44;;;10.42;100.00
63006;BME280;53704;52.532;6.426;2022-10-22T05:51:38;100991.06;;;10.31;100.00
63006;BME280;53704;52.532;6.426;2022-10-22T05:54:05;100984.91;;;10.39;100.00
63006;BME280;53704;52.532;6.426;2022-10-22T05:56:32;100989.91;;;10.34;100.00
63006;BME280;53704;52.532;6.426;2022-10-22T05:58:58;100990.66;;;10.44;100.00
63006;BME280;53704;52.532;6.426;2022-10-22T06:01:26;100993.72;;;10.49;100.00
63006;BME280;53704;52.532;6.426;2022-10-22T06:03:56;100991.72;;;10.51;100.00
63006;BME280;53704;52.532;6.426;2022-10-22T06:06:33;101001.00;;;10.57;100.00
63006;BME280;53704;52.532;6.426;2022-10-22T06:09:16;100999.63;;;10.53;100.00
63006;BME280;53704;52.532;6.426;2022-10-22T06:11:43;101007.22;;;10.57;100.00
63006;BME280;53704;52.532;6.426;2022-10-22T06:14:09;101007.09;;;10.67;100.00
63006;BME280;53704;52.532;6.426;2022-10-22T06:16:35;101011.78;;;10.57;100.00
63006;BME280;53704;52.532;6.426;2022-10-22T06:19:01;101020.06;;;10.63;100.00
63006;BME280;53704;52.532;6.426;2022-10-22T06:21:27;101023.09;;;10.68;100.00
63006;BME280;53704;52.532;6.426;2022-10-22T06:23:55;101018.25;;;10.72;100.00
63006;BME280;53704;52.532;6.426;2022-10-22T06:26:21;101017.72;;;10.68;100.00
63006;BME280;53704;52.532;6.426;2022-10-22T06:28:46;101018.09;;;10.74;100.00
63006;BME280;53704;52.532;6.426;2022-10-22T06:31:12;101018.63;;;10.77;100.00
63006;BME280;53704;52.532;6.426;2022-10-22T06:33:39;101016.91;;;10.76;100.00
63006;BME280;53704;52.532;6.426;2022-10-22T06:36:18;101029.03;;;10.72;100.00
63006;BME280;53704;52.532;6.426;2022-10-22T06:38:45;101030.03;;;10.71;100.00
63006;BME280;53704;52.532;6.426;2022-10-22T06:41:12;101031.19;;;10.68;100.00
63006;BME280;53704;52.532;6.426;2022-10-22T06:43:39;101044.16;;;10.73;100.00
63006;BME280;53704;52.532;6.426;2022-10-22T06:46:07;101035.09;;;10.74;100.00
63006;BME280;53704;52.532;6.426;2022-10-22T06:48:39;101040.84;;;10.79;100.00
63006;BME280;53704;52.532;6.426;2022-10-22T06:51:07;101040.19;;;10.85;100.00
63006;BME280;53704;52.532;6.426;2022-10-22T06:53:34;101049.09;;;10.86;100.00
63006;BME280;53704;52.532;6.426;2022-10-22T06:56:17;101055.69;;;10.83;100.00
63006;BME280;53704;52.532;6.426;2022-10-22T06:58:48;101049.06;;;10.78;100.00
63006;BME280;53704;52.532;6.426;2022-10-22T07:01:15;101055.69;;;10.83;100.00
63006;BME280;53704;52.532;6.426;2022-10-22T07:03:41;101055.88;;;10.90;100.00
63006;BME280;53704;52.532;6.426;2022-10-22T07:06:09;101069.84;;;10.94;100.00
63006;BME280;53704;52.532;6.426;2022-10-22T07:08:36;101072.22;;;10.97;100.00
63006;BME280;53704;52.532;6.426;2022-10-22T07:11:13;101068.22;;;11.01;100.00
63006;BME280;53704;52.532;6.426;2022-10-22T07:13:39;101075.44;;;11.00;100.00
63006;BME280;53704;52.532;6.426;2022-10-22T07:16:05;101073.97;;;11.06;100.00
63006;BME280;53704;52.532;6.426;2022-10-22T07:18:32;101080.34;;;11.05;100.00
63006;BME280;53704;52.532;6.426;2022-10-22T07:20:58;101086.13;;;11.10;100.00
63006;BME280;53704;52.532;6.426;2022-10-22T07:23:24;101084.78;;;11.14;100.00
63006;BME280;53704;52.532;6.426;2022-10-22T07:25:49;101087.78;;;11.11;100.00
63006;BME280;53704;52.532;6.426;2022-10-22T07:28:15;101092.34;;;11.11;100.00
63006;BME280;53704;52.532;6.426;2022-10-22T07:30:40;101093.44;;;11.26;100.00
63006;BME280;53704;52.532;6.426;2022-10-22T07:33:08;101098.13;;;11.24;100.00
63006;BME280;53704;52.532;6.426;2022-10-22T07:35:36;101103.34;;;11.26;100.00
63006;BME280;53704;52.532;6.426;2022-10-22T07:38:02;101106.91;;;11.26;100.00
63006;BME280;53704;52.532;6.426;2022-10-22T07:40:27;101105.41;;;11.32;100.00
63006;BME280;53704;52.532;6.426;2022-10-22T07:42:52;101110.97;;;11.30;100.00
63006;BME280;53704;52.532;6.426;2022-10-22T07:45:18;101116.88;;;11.34;100.00
63006;BME280;53704;52.532;6.426;2022-10-22T07:47:46;101119.91;;;11.31;100.00
63006;BME280;53704;52.532;6.426;2022-10-22T07:50:11;101122.78;;;11.37;100.00
63006;BME280;53704;52.532;6.426;2022-10-22T07:52:36;101124.44;;;11.30;100.00
63006;BME280;53704;52.532;6.426;2022-10-22T07:55:02;101128.50;;;11.34;100.00
63006;BME280;53704;52.532;6.426;2022-10-22T07:57:27;101123.28;;;11.33;100.00
63006;BME280;53704;52.532;6.426;2022-10-22T07:59:53;101124.53;;;11.47;100.00
63006;BME280;53704;52.532;6.426;2022-10-22T08:02:20;101129.38;;;11.43;100.00
63006;BME280;53704;52.532;6.426;2022-10-22T08:04:46;101131.41;;;11.49;100.00
63006;BME280;53704;52.532;6.426;2022-10-22T08:07:11;101129.44;;;11.59;100.00
63006;BME280;53704;52.532;6.426;2022-10-22T08:09:36;101135.69;;;11.68;100.00
63006;BME280;53704;52.532;6.426;2022-10-22T08:12:02;101139.44;;;11.75;100.00
63006;BME280;53704;52.532;6.426;2022-10-22T08:14:27;101140.47;;;11.83;100.00
63006;BME280;53704;52.532;6.426;2022-10-22T08:16:53;101143.91;;;11.93;100.00
63006;BME280;53704;52.532;6.426;2022-10-22T08:19:18;101139.81;;;11.89;100.00
63006;BME280;53704;52.532;6.426;2022-10-22T08:21:45;101143.75;;;11.94;100.00
63006;BME280;53704;52.532;6.426;2022-10-22T08:24:12;101148.66;;;11.99;100.00
63006;BME280;53704;52.532;6.426;2022-10-22T08:26:38;101147.28;;;12.03;100.00
63006;BME280;53704;52.532;6.426;2022-10-22T08:29:03;101147.81;;;12.15;100.00
63006;BME280;53704;52.532;6.426;2022-10-22T08:31:29;101153.56;;;12.28;100.00
63006;BME280;53704;52.532;6.426;2022-10-22T08:33:54;101155.78;;;12.33;100.00
63006;BME280;53704;52.532;6.426;2022-10-22T08:36:20;101147.50;;;12.43;100.00
63006;BME280;53704;52.532;6.426;2022-10-22T08:38:45;101147.00;;;12.39;100.00
63006;BME280;53704;52.532;6.426;2022-10-22T08:41:13;101150.41;;;12.41;100.00
63006;BME280;53704;52.532;6.426;2022-10-22T08:49:18;101158.81;;;12.63;100.00
63006;BME280;53704;52.532;6.426;2022-10-22T08:51:44;101162.03;;;12.66;100.00
63006;BME280;53704;52.532;6.426;2022-10-22T08:57:18;101174.69;;;12.91;100.00
63006;BME280;53704;52.532;6.426;2022-10-22T09:02:49;101171.44;;;13.03;100.00
63006;BME280;53704;52.532;6.426;2022-10-22T09:08:11;101182.25;;;13.12;100.00
63006;BME280;53704;52.532;6.426;2022-10-22T09:10:42;101181.56;;;13.18;100.00
63006;BME280;53704;52.532;6.426;2022-10-22T09:13:16;101176.97;;;13.18;100.00
63006;BME280;53704;52.532;6.426;2022-10-22T09:15:43;101183.75;;;13.23;100.00
63006;BME280;53704;52.532;6.426;2022-10-22T09:18:35;101178.31;;;13.31;100.00
63006;BME280;53704;52.532;6.426;2022-10-22T09:24:08;101185.22;;;13.50;100.00
63006;BME280;53704;52.532;6.426;2022-10-22T09:26:38;101192.50;;;13.49;100.00
63006;BME280;53704;52.532;6.426;2022-10-22T09:29:05;101197.69;;;13.59;100.00
63006;BME280;53704;52.532;6.426;2022-10-22T09:31:31;101198.53;;;13.60;100.00
63006;BME280;53704;52.532;6.426;2022-10-22T09:33:57;101199.53;;;13.67;100.00
63006;BME280;53704;52.532;6.426;2022-10-22T09:36:24;101199.97;;;13.79;100.00
63006;BME280;53704;52.532;6.426;2022-10-22T09:38:51;101205.91;;;13.74;100.00
63006;BME280;53704;52.532;6.426;2022-10-22T09:41:24;101203.72;;;13.69;100.00
63006;BME280;53704;52.532;6.426;2022-10-22T09:43:50;101209.53;;;13.66;100.00
63006;BME280;53704;52.532;6.426;2022-10-22T09:46:21;101202.72;;;13.70;100.00
63006;BME280;53704;52.532;6.426;2022-10-22T09:49:11;101217.16;;;13.94;100.00
63006;BME280;53704;52.532;6.426;2022-10-22T09:51:47;101215.03;;;13.81;100.00
63006;BME280;53704;52.532;6.426;2022-10-22T09:54:19;101214.91;;;13.74;100.00
63006;BME280;53704;52.532;6.426;2022-10-22T09:56:50;101221.09;;;13.83;100.00
63006;BME280;53704;52.532;6.426;2022-10-22T09:59:17;101232.03;;;13.98;100.00
63006;BME280;53704;52.532;6.426;2022-10-22T10:01:43;101234.56;;;14.00;100.00
63006;BME280;53704;52.532;6.426;2022-10-22T10:04:15;101233.81;;;14.14;100.00
63006;BME280;53704;52.532;6.426;2022-10-22T10:06:42;101236.41;;;14.07;100.00
63006;BME280;53704;52.532;6.426;2022-10-22T10:09:16;101243.97;;;14.12;100.00
63006;BME280;53704;52.532;6.426;2022-10-22T10:11:47;101241.31;;;14.04;100.00
63006;BME280;53704;52.532;6.426;2022-10-22T10:14:19;101243.00;;;14.05;100.00
63006;BME280;53704;52.532;6.426;2022-10-22T10:16:53;101247.94;;;14.01;100.00
63006;BME280;53704;52.532;6.426;2022-10-22T10:19:37;101256.44;;;13.90;100.00
63006;BME280;53704;52.532;6.426;2022-10-22T10:30:21;101269.97;;;14.21;100.00
63006;BME280;53704;52.532;6.426;2022-10-22T10:35:40;101265.81;;;14.73;100.00
63006;BME280;53704;52.532;6.426;2022-10-22T10:40:48;101265.69;;;14.67;100.00
63006;BME280;53704;52.532;6.426;2022-10-22T10:56:48;101282.06;;;14.73;100.00
63006;BME280;53704;52.532;6.426;2022-10-22T11:05:10;101287.13;;;14.76;100.00
63006;BME280;53704;52.532;6.426;2022-10-22T11:07:46;101278.41;;;14.89;100.00
63006;BME280;53704;52.532;6.426;2022-10-22T11:10:28;101282.47;;;15.08;100.00
63006;BME280;53704;52.532;6.426;2022-10-22T11:13:36;101283.09;;;15.33;100.00
63006;BME280;53704;52.532;6.426;2022-10-22T11:18:43;101274.69;;;15.43;100.00
63006;BME280;53704;52.532;6.426;2022-10-22T11:24:25;101283.69;;;15.59;100.00
63006;BME280;53704;52.532;6.426;2022-10-22T11:26:57;101279.44;;;15.26;100.00
63006;BME280;53704;52.532;6.426;2022-10-22T11:29:30;101279.84;;;15.38;100.00
63006;BME280;53704;52.532;6.426;2022-10-22T11:31:58;101286.50;;;15.65;100.00
63006;BME280;53704;52.532;6.426;2022-10-22T11:34:37;101281.25;;;15.49;100.00
63006;BME280;53704;52.532;6.426;2022-10-22T11:37:06;101281.34;;;15.55;100.00
63006;BME280;53704;52.532;6.426;2022-10-22T11:39:39;101292.97;;;15.64;100.00
63006;BME280;53704;52.532;6.426;2022-10-22T11:42:09;101281.19;;;15.72;100.00
63006;BME280;53704;52.532;6.426;2022-10-22T11:45:05;101284.28;;;15.69;100.00
63006;BME280;53704;52.532;6.426;2022-10-22T11:50:21;101284.25;;;15.39;100.00
63006;BME280;53704;52.532;6.426;2022-10-22T11:52:53;101281.25;;;15.49;100.00
63006;BME280;53704;52.532;6.426;2022-10-22T11:58:39;101288.84;;;15.68;100.00
63006;BME280;53704;52.532;6.426;2022-10-22T12:09:02;101273.44;;;15.84;100.00
63006;BME280;53704;52.532;6.426;2022-10-22T12:11:37;101279.34;;;16.02;100.00
63006;BME280;53704;52.532;6.426;2022-10-22T12:14:16;101278.13;;;15.75;98.11
63006;BME280;53704;52.532;6.426;2022-10-22T12:19:31;101277.91;;;16.06;100.00
63006;BME280;53704;52.532;6.426;2022-10-22T12:22:25;101280.16;;;16.03;98.58
63006;BME280;53704;52.532;6.426;2022-10-22T12:24:54;101276.81;;;16.01;98.77
63006;BME280;53704;52.532;6.426;2022-10-22T12:27:22;101269.09;;;15.74;96.93
63006;BME280;53704;52.532;6.426;2022-10-22T12:29:52;101271.69;;;15.91;96.38
63006;BME280;53704;52.532;6.426;2022-10-22T12:32:18;101268.91;;;15.76;96.27
63006;BME280;53704;52.532;6.426;2022-10-22T12:34:48;101262.06;;;15.65;92.95
63006;BME280;53704;52.532;6.426;2022-10-22T12:37:15;101271.94;;;15.81;93.92
63006;BME280;53704;52.532;6.426;2022-10-22T12:39:41;101262.41;;;15.85;91.77
63006;BME280;53704;52.532;6.426;2022-10-22T12:42:12;101265.19;;;16.07;94.18
63006;BME280;53704;52.532;6.426;2022-10-22T12:44:38;101272.09;;;16.24;92.81
63006;BME280;53704;52.532;6.426;2022-10-22T12:47:05;101276.03;;;16.22;94.06
63006;BME280;53704;52.532;6.426;2022-10-22T12:49:38;101268.63;;;16.31;92.57
63006;BME280;53704;52.532;6.426;2022-10-22T12:52:06;101273.59;;;16.12;92.88
63006;BME280;53704;52.532;6.426;2022-10-22T12:54:35;101267.22;;;16.20;93.60
63006;BME280;53704;52.532;6.426;2022-10-22T12:57:02;101269.78;;;16.43;93.18
63006;BME280;53704;52.532;6.426;2022-10-22T12:59:35;101273.94;;;16.39;94.72
63006;BME280;53704;52.532;6.426;2022-10-22T13:02:24;101277.91;;;16.58;94.92
63006;BME280;53704;52.532;6.426;2022-10-22T13:07:53;101270.84;;;16.27;92.16
63006;BME280;53704;52.532;6.426;2022-10-22T13:10:24;101284.09;;;16.15;93.23
63006;BME280;53704;52.532;6.426;2022-10-22T13:12:53;101286.78;;;16.30;93.49
63006;BME280;53704;52.532;6.426;2022-10-22T13:15:41;101289.34;;;16.02;92.39
63006;BME280;53704;52.532;6.426;2022-10-22T13:18:18;101286.44;;;16.55;90.63
63006;BME280;53704;52.532;6.426;2022-10-22T13:23:20;101295.34;;;16.49;90.82
63006;BME280;53704;52.532;6.426;2022-10-22T13:25:59;101294.53;;;16.48;92.42
63006;BME280;53704;52.532;6.426;2022-10-22T13:28:26;101294.41;;;16.56;89.93
63006;BME280;53704;52.532;6.426;2022-10-22T13:31:13;101299.72;;;16.64;89.57
63006;BME280;53704;52.532;6.426;2022-10-22T13:33:44;101292.00;;;16.46;89.55
63006;BME280;53704;52.532;6.426;2022-10-22T13:36:15;101295.63;;;16.54;89.15
63006;BME280;53704;52.532;6.426;2022-10-22T13:38:41;101301.72;;;16.56;87.15
63006;BME280;53704;52.532;6.426;2022-10-22T13:43:48;101300.09;;;16.40;86.83
63006;BME280;53704;52.532;6.426;2022-10-22T13:46:13;101301.72;;;16.19;84.46
63006;BME280;53704;52.532;6.426;2022-10-22T13:48:39;101308.13;;;16.33;84.52
63006;BME280;53704;52.532;6.426;2022-10-22T13:51:19;101304.81;;;16.16;86.66
63006;BME280;53704;52.532;6.426;2022-10-22T13:53:46;101301.41;;;16.29;85.72
63006;BME280;53704;52.532;6.426;2022-10-22T13:56:17;101300.94;;;16.25;86.39
63006;BME280;53704;52.532;6.426;2022-10-22T13:58:44;101312.47;;;16.27;84.73
63006;BME280;53704;52.532;6.426;2022-10-22T14:01:20;101307.56;;;16.38;82.04
63006;BME280;53704;52.532;6.426;2022-10-22T14:03:47;101308.22;;;16.40;83.91
63006;BME280;53704;52.532;6.426;2022-10-22T14:06:14;101315.94;;;16.21;85.27
63006;BME280;53704;52.532;6.426;2022-10-22T14:08:41;101305.63;;;16.17;83.20
63006;BME280;53704;52.532;6.426;2022-10-22T14:11:10;101323.91;;;16.08;83.15
63006;BME280;53704;52.532;6.426;2022-10-22T14:13:37;101316.50;;;16.02;82.59
63006;BME280;53704;52.532;6.426;2022-10-22T14:16:04;101328.69;;;16.06;81.00
63006;BME280;53704;52.532;6.426;2022-10-22T14:18:30;101327.56;;;15.85;82.46
63006;BME280;53704;52.532;6.426;2022-10-22T14:21:00;101328.09;;;15.81;82.49
63006;BME280;53704;52.532;6.426;2022-10-22T14:23:30;101325.66;;;15.71;84.02
63006;BME280;53704;52.532;6.426;2022-10-22T14:25:57;101334.69;;;15.86;83.16
63006;BME280;53704;52.532;6.426;2022-10-22T14:28:23;101337.38;;;16.01;83.50